Flight Track Log - Related Links

Times and Time Zones

All times are in EDT time to prevent confusion due to time zone crossing. See the EJA727 flight status page for this flight to view local times or setup timezone preferences in your user account.

Time Position Orientation Groundspeed Altitude Reporting Facility
EDT Latitude Longitude Course Direction KTS MPH feet Rate Location/Type
Sat 01:06:20 PM 29.9572 -94.0364 258° West 163 188 700  Level Houston Center
Sat 01:07:04 PM 29.9492 -94.0808 258° West 217 250 2,300 2,296 Climbing Houston Center
Sat 01:07:41 PM 29.9364 -94.1164 247° West 243 280 3,800 3,152 Climbing Houston Center
Sat 01:08:43 PM 29.8819 -94.1683 220° Southwest 281 323 7,500 3,581 Climbing Houston Center
Sat 01:09:45 PM 29.7786 -94.1742 183° South 308 354 11,200 2,855 Climbing Houston Center
Sat 01:10:47 PM 29.6731 -94.1808 183° South 378 435 13,400 2,226 Climbing Houston Center
Sat 01:11:49 PM 29.5672 -94.1508 166° South 399 459 15,800 2,516 Climbing Houston Center
Sat 01:12:51 PM 29.4589 -94.1083 161° South 410 472 18,600 2,710 Climbing Houston Center
Sat 01:13:53 PM 29.3497 -94.0497 155° Southeast 418 481 21,400 2,516 Climbing Houston Center
Sat 01:14:55 PM 29.2431 -93.9942 156° South 418 481 23,800 2,098 Climbing Houston Center
Sat 01:15:56 PM 29.1483 -93.9164 144° Southeast 429 494 25,700 1,854 Climbing Houston Center
Sat 01:16:58 PM 29.0450 -93.8117 138° Southeast 431 496 27,600 1,645 Climbing Houston Center
Sat 01:18:00 PM 28.9533 -93.7161 138° Southeast 444 511 29,100 1,597 Climbing Houston Center
Sat 01:19:02 PM 28.8547 -93.6167 139° Southeast 449 517 30,900 1,597 Climbing Houston Center
Sat 01:20:04 PM 28.7656 -93.5264 138° Southeast 453 521 32,400 1,500 Climbing Houston Center
Sat 01:21:06 PM 28.6728 -93.4311 138° Southeast 451 519 34,000 1,258 Climbing Houston Center
Sat 01:22:08 PM 28.5753 -93.3342 139° Southeast 442 509 35,000 488 Climbing Houston Center
Sat 01:23:09 PM 28.4681 -93.2267 139° Southeast 450 518 35,000  Level Houston Center
Sat 01:24:11 PM 28.3722 -93.1314 139° Southeast 456 525 35,000  Level Houston Center
Sat 01:25:13 PM 28.2769 -93.0347 138° Southeast 459 528 35,000  Level Houston Center
Sat 01:26:15 PM 28.1819 -92.9417 139° Southeast 455 524 35,000  Level Houston Center
Sat 01:27:17 PM 28.0881 -92.8472 138° Southeast 452 520 35,000  Level Houston Center
Sat 01:28:19 PM 27.9931 -92.7511 138° Southeast 457 526 35,000  Level Houston Center
Sat 01:29:20 PM 27.8800 -92.6364 138° Southeast 456 525 35,000  Level Houston Center
Sat 01:30:22 PM 27.7819 -92.5433 140° Southeast 458 527 35,000  Level Houston Center
Sat 01:31:24 PM 27.6858 -92.4478 139° Southeast 461 531 35,000  Level Houston Center
Sat 01:32:26 PM 27.5881 -92.3525 139° Southeast 463 533 35,000  Level Houston Center
Sat 01:33:28 PM 27.4903 -92.2581 139° Southeast 464 534 35,000  Level Houston Center
Sat 01:34:30 PM 27.3936 -92.1647 139° Southeast 461 531 35,000  Level Houston Center
Sat 01:35:32 PM 27.2778 -92.0506 139° Southeast 460 529 35,000  Level Houston Center
Sat 01:36:33 PM 27.1806 -91.9569 139° Southeast 461 531 35,000  Level Houston Center
Sat 01:37:35 PM 27.0781 -91.8708 143° Southeast 461 531 35,000  Level Houston Center
Sat 01:40:00 PM 26.8375 -91.6757 144° Southeast  Level FlightAware Approximate
Sat 01:47:00 PM 26.1383 -91.1165 145° Southeast  Level FlightAware Approximate
Sat 01:48:00 PM 26.0380 -91.0377 145° Southeast  Level FlightAware Approximate
Sat 01:49:00 PM 25.9375 -90.9590 145° Southeast  Level FlightAware Approximate
Sat 01:50:00 PM 25.8371 -90.8804 145° Southeast  Level FlightAware Approximate
Sat 01:51:00 PM 25.7366 -90.8020 145° Southeast  Level FlightAware Approximate
Sat 01:52:00 PM 25.6360 -90.7236 145° Southeast  Level FlightAware Approximate
Sat 01:53:00 PM 25.5355 -90.6455 145° Southeast  Level FlightAware Approximate
Sat 01:54:00 PM 25.4348 -90.5674 145° Southeast  Level FlightAware Approximate
Sat 01:55:00 PM 25.3342 -90.4895 145° Southeast  Level FlightAware Approximate
Sat 01:56:00 PM 25.2334 -90.4117 145° Southeast  Level FlightAware Approximate
Sat 01:57:00 PM 25.1327 -90.3341 145° Southeast  Level FlightAware Approximate
Sat 01:58:00 PM 25.0319 -90.2566 145° Southeast  Level FlightAware Approximate
Sat 01:59:00 PM 24.9311 -90.1792 145° Southeast  Level FlightAware Approximate
Sat 02:00:00 PM 24.8302 -90.1019 145° Southeast  Level FlightAware Approximate
Sat 02:01:00 PM 24.7293 -90.0247 145° Southeast  Level FlightAware Approximate
Sat 02:02:00 PM 24.6283 -89.9477 145° Southeast  Level FlightAware Approximate
Sat 02:03:00 PM 24.5274 -89.8708 145° Southeast  Level FlightAware Approximate
Sat 02:04:00 PM 24.4518 -89.7684 118° Southeast  Level FlightAware Approximate
Sat 02:05:00 PM 24.3938 -89.6494 118° Southeast  Level FlightAware Approximate
Sat 02:06:00 PM 24.3358 -89.5306 118° Southeast  Level FlightAware Approximate
Sat 02:07:00 PM 24.2777 -89.4118 118° Southeast  Level FlightAware Approximate
Sat 02:08:00 PM 24.2194 -89.2932 118° Southeast  Level FlightAware Approximate
Sat 02:09:00 PM 24.1611 -89.1747 118° Southeast  Level FlightAware Approximate
Sat 02:10:00 PM 24.1027 -89.0563 118° Southeast  Level FlightAware Approximate
Sat 02:11:00 PM 24.0443 -88.9379 118° Southeast  Level FlightAware Approximate
Sat 02:12:00 PM 23.9858 -88.8196 118° Southeast  Level FlightAware Approximate
Sat 02:13:00 PM 23.9273 -88.7015 118° Southeast  Level FlightAware Approximate
Sat 02:14:00 PM 23.8687 -88.5834 118° Southeast  Level FlightAware Approximate
Sat 02:15:00 PM 23.8099 -88.4655 119° Southeast  Level FlightAware Approximate
Sat 02:16:00 PM 23.7511 -88.3476 119° Southeast  Level FlightAware Approximate
Sat 02:17:00 PM 23.6922 -88.2299 119° Southeast  Level FlightAware Approximate
Sat 02:18:00 PM 23.6332 -88.1122 119° Southeast  Level FlightAware Approximate
Sat 02:19:00 PM 23.5742 -87.9947 119° Southeast  Level FlightAware Approximate
Sat 02:20:00 PM 23.5150 -87.8773 119° Southeast  Level FlightAware Approximate
Sat 02:21:00 PM 23.4557 -87.7599 119° Southeast  Level FlightAware Approximate
Sat 02:22:00 PM 23.3964 -87.6427 119° Southeast  Level FlightAware Approximate
Sat 02:23:00 PM 23.3370 -87.5256 119° Southeast  Level FlightAware Approximate
Sat 02:24:00 PM 23.2775 -87.4086 119° Southeast  Level FlightAware Approximate
Sat 02:25:00 PM 23.2179 -87.2917 119° Southeast  Level FlightAware Approximate
Sat 02:26:00 PM 23.1582 -87.1749 119° Southeast  Level FlightAware Approximate
Sat 02:27:00 PM 23.0984 -87.0582 119° Southeast  Level FlightAware Approximate
Sat 02:28:00 PM 23.0385 -86.9416 119° Southeast  Level FlightAware Approximate
Sat 02:29:00 PM 22.9786 -86.8251 119° Southeast  Level FlightAware Approximate
Sat 02:30:00 PM 22.9186 -86.7088 119° Southeast  Level FlightAware Approximate
Sat 02:31:00 PM 22.8584 -86.5925 119° Southeast  Level FlightAware Approximate
Sat 02:32:00 PM 22.7983 -86.4763 119° Southeast  Level FlightAware Approximate
Sat 02:33:00 PM 22.7380 -86.3602 119° Southeast  Level FlightAware Approximate
Sat 02:34:00 PM 22.6776 -86.2443 119° Southeast  Level FlightAware Approximate
Sat 02:35:00 PM 22.6171 -86.1284 119° Southeast  Level FlightAware Approximate
Sat 02:36:00 PM 22.5566 -86.0126 120° Southeast  Level FlightAware Approximate
Sat 02:37:00 PM 22.4967 -85.8966 119° Southeast  Level FlightAware Approximate
Sat 02:38:00 PM 22.4367 -85.7805 119° Southeast  Level FlightAware Approximate
Sat 02:39:00 PM 22.3767 -85.6646 119° Southeast  Level FlightAware Approximate
Sat 02:40:00 PM 22.3166 -85.5488 119° Southeast  Level FlightAware Approximate
Sat 02:41:00 PM 22.2564 -85.4330 119° Southeast  Level FlightAware Approximate
Sat 02:42:00 PM 22.1962 -85.3174 119° Southeast  Level FlightAware Approximate
Sat 02:43:00 PM 22.1358 -85.2019 119° Southeast  Level FlightAware Approximate
Sat 02:44:00 PM 22.0754 -85.0864 119° Southeast  Level FlightAware Approximate
Sat 02:45:00 PM 22.0149 -84.9711 119° Southeast  Level FlightAware Approximate
Sat 02:46:00 PM 21.9543 -84.8559 120° Southeast  Level FlightAware Approximate
Sat 02:47:00 PM 21.8936 -84.7408 120° Southeast  Level FlightAware Approximate
Sat 02:48:00 PM 21.8329 -84.6257 120° Southeast  Level FlightAware Approximate
Sat 02:49:00 PM 21.7720 -84.5108 120° Southeast  Level FlightAware Approximate
Sat 02:50:00 PM 21.7111 -84.3959 120° Southeast  Level FlightAware Approximate
Sat 02:51:00 PM 21.6501 -84.2812 120° Southeast  Level FlightAware Approximate
Sat 02:52:00 PM 21.5891 -84.1665 120° Southeast  Level FlightAware Approximate
Sat 02:53:00 PM 21.5279 -84.0520 120° Southeast  Level FlightAware Approximate
Sat 02:54:00 PM 21.4667 -83.9376 120° Southeast  Level FlightAware Approximate
Sat 02:55:00 PM 21.4054 -83.8232 120° Southeast  Level FlightAware Approximate
Sat 02:56:00 PM 21.3440 -83.7089 120° Southeast  Level FlightAware Approximate
Sat 02:57:00 PM 21.2825 -83.5948 120° Southeast  Level FlightAware Approximate
Sat 02:58:00 PM 21.2210 -83.4807 120° Southeast  Level FlightAware Approximate
Sat 02:59:00 PM 21.1594 -83.3667 120° Southeast  Level FlightAware Approximate
Sat 03:00:00 PM 21.0977 -83.2529 120° Southeast  Level FlightAware Approximate
Sat 03:01:00 PM 21.0359 -83.1391 120° Southeast  Level FlightAware Approximate
Sat 03:02:00 PM 20.9741 -83.0254 120° Southeast  Level FlightAware Approximate
Sat 03:03:00 PM 20.9122 -82.9118 120° Southeast  Level FlightAware Approximate
Sat 03:04:00 PM 20.8502 -82.7983 120° Southeast  Level FlightAware Approximate
Sat 03:05:00 PM 20.7881 -82.6849 120° Southeast  Level FlightAware Approximate
Sat 03:06:00 PM 20.7260 -82.5715 120° Southeast  Level FlightAware Approximate
Sat 03:07:00 PM 20.6637 -82.4583 120° Southeast  Level FlightAware Approximate
Sat 03:08:00 PM 20.5945 -82.3500 125° Southeast  Level FlightAware Approximate
Sat 03:09:00 PM 20.5345 -82.2357 118° Southeast  Level FlightAware Approximate
Sat 03:10:00 PM 20.4713 -82.1236 125° Southeast  Level FlightAware Approximate
Sat 03:11:00 PM 20.4060 -82.0126 122° Southeast  Level FlightAware Approximate
Sat 03:12:00 PM 20.3414 -81.9011 121° Southeast  Level FlightAware Approximate
Sat 03:13:00 PM 20.2786 -81.7885 121° Southeast  Level FlightAware Approximate
Sat 03:14:00 PM 20.2159 -81.6759 121° Southeast  Level FlightAware Approximate
Sat 03:15:00 PM 20.1530 -81.5635 121° Southeast  Level FlightAware Approximate
Sat 03:16:00 PM 20.0901 -81.4511 121° Southeast  Level FlightAware Approximate
Sat 03:17:00 PM 20.0276 -81.3386 118° Southeast  Level FlightAware Approximate
Sat 03:18:00 PM 19.9522 -81.2746 189° South  Level FlightAware Approximate
Sat 03:19:00 PM 19.8302 -81.2887 184° South  Level FlightAware Approximate
Sat 03:20:00 PM 19.7077 -81.2981 184° South  Level FlightAware Approximate
Sat 03:21:00 PM 19.5853 -81.3098 185° South  Level FlightAware Approximate
Sat 03:22:00 PM 19.4642 -81.3298 193° South  Level FlightAware Approximate
Sat 03:23:00 PM 19.3419 -81.3350 191° South  Level FlightAware Approximate
Sat 03:24:00 PM 19.2928 -81.3577 191° South  Level Estimated
Sat 03:25:00 PM 19.2928 -81.3577 191° South  Level Estimated
Sat 03:26:00 PM 19.2928 -81.3577 191° South  Level Estimated
Sat 03:27:00 PM 19.2928 -81.3577 191° South  Level Estimated
Sat 03:28:00 PM 19.2928 -81.3577 191° South  Level Estimated
Sat 03:29:00 PM 19.2928 -81.3577 191° South  Level Estimated
Sat 03:30:00 PM 19.2928 -81.3577 191° South  Level Estimated
Sat 03:31:00 PM 19.2928 -81.3577 191° South  Level Estimated
Sat 03:32:00 PM 19.2928 -81.3577 191° South  Level Estimated
Sat 03:33:00 PM 19.2928 -81.3577 191° South  Level Estimated
Sat 03:34:00 PM 19.2928 -81.3577 191° South  Level Estimated
Sat 03:35:00 PM 19.2928 -81.3577 191° South  Level Estimated
Sat 03:36:00 PM 19.2928 -81.3577 191° South  Level Estimated
Sat 03:37:00 PM 19.2928 -81.3577 191° South  Level Estimated

Login

Don't have an account? Register now (free) for customized features, flight alerts, and more!